sensor_id;sensor_type;location;lat;lon;timestamp;P1;durP1;ratioP1;P2;durP2;ratioP2
32393;SDS011;18853;45.426;9.206;2024-03-02T00:01:06;17.70;;;13.23;;
32393;SDS011;18853;45.426;9.206;2024-03-02T00:03:32;16.50;;;12.90;;
32393;SDS011;18853;45.426;9.206;2024-03-02T00:05:58;16.20;;;12.73;;
32393;SDS011;18853;45.426;9.206;2024-03-02T00:08:24;17.17;;;13.25;;
32393;SDS011;18853;45.426;9.206;2024-03-02T00:10:51;19.33;;;13.00;;
32393;SDS011;18853;45.426;9.206;2024-03-02T00:13:18;17.00;;;12.95;;
32393;SDS011;18853;45.426;9.206;2024-03-02T00:15:48;19.75;;;13.77;;
32393;SDS011;18853;45.426;9.206;2024-03-02T00:18:27;16.83;;;13.05;;
32393;SDS011;18853;45.426;9.206;2024-03-02T00:25:48;14.73;;;12.40;;
32393;SDS011;18853;45.426;9.206;2024-03-02T00:28:23;15.95;;;12.73;;
32393;SDS011;18853;45.426;9.206;2024-03-02T00:33:15;15.65;;;13.50;;
32393;SDS011;18853;45.426;9.206;2024-03-02T00:35:43;15.20;;;13.25;;
32393;SDS011;18853;45.426;9.206;2024-03-02T00:38:09;15.60;;;12.63;;
32393;SDS011;18853;45.426;9.206;2024-03-02T00:40:35;17.30;;;13.00;;
32393;SDS011;18853;45.426;9.206;2024-03-02T00:43:01;19.13;;;13.63;;
32393;SDS011;18853;45.426;9.206;2024-03-02T00:45:28;17.70;;;13.75;;
32393;SDS011;18853;45.426;9.206;2024-03-02T00:47:54;18.50;;;13.70;;
32393;SDS011;18853;45.426;9.206;2024-03-02T00:50:20;21.35;;;15.10;;
32393;SDS011;18853;45.426;9.206;2024-03-02T00:52:46;20.30;;;14.43;;
32393;SDS011;18853;45.426;9.206;2024-03-02T00:55:13;17.90;;;14.18;;
32393;SDS011;18853;45.426;9.206;2024-03-02T00:57:39;18.73;;;13.68;;
32393;SDS011;18853;45.426;9.206;2024-03-02T01:00:05;18.30;;;13.93;;
32393;SDS011;18853;45.426;9.206;2024-03-02T01:02:34;18.80;;;14.73;;
32393;SDS011;18853;45.426;9.206;2024-03-02T01:05:00;17.83;;;14.18;;
32393;SDS011;18853;45.426;9.206;2024-03-02T01:07:26;17.40;;;13.88;;
32393;SDS011;18853;45.426;9.206;2024-03-02T01:09:51;18.83;;;14.50;;
32393;SDS011;18853;45.426;9.206;2024-03-02T01:12:17;18.38;;;14.73;;
32393;SDS011;18853;45.426;9.206;2024-03-02T01:14:42;18.92;;;14.02;;
32393;SDS011;18853;45.426;9.206;2024-03-02T01:17:08;18.02;;;13.68;;
32393;SDS011;18853;45.426;9.206;2024-03-02T01:19:34;17.63;;;14.38;;
32393;SDS011;18853;45.426;9.206;2024-03-02T01:21:59;18.27;;;14.40;;
32393;SDS011;18853;45.426;9.206;2024-03-02T01:24:25;22.52;;;14.55;;
32393;SDS011;18853;45.426;9.206;2024-03-02T01:26:50;19.60;;;14.18;;
32393;SDS011;18853;45.426;9.206;2024-03-02T01:29:16;17.35;;;14.40;;
32393;SDS011;18853;45.426;9.206;2024-03-02T01:31:41;16.58;;;13.68;;
32393;SDS011;18853;45.426;9.206;2024-03-02T01:34:07;20.23;;;15.05;;
32393;SDS011;18853;45.426;9.206;2024-03-02T01:36:33;20.02;;;15.13;;
32393;SDS011;18853;45.426;9.206;2024-03-02T01:38:59;19.25;;;14.70;;
32393;SDS011;18853;45.426;9.206;2024-03-02T01:41:24;19.80;;;15.23;;
32393;SDS011;18853;45.426;9.206;2024-03-02T01:43:50;18.45;;;15.05;;
32393;SDS011;18853;45.426;9.206;2024-03-02T01:46:16;16.67;;;13.98;;
32393;SDS011;18853;45.426;9.206;2024-03-02T01:48:41;19.35;;;14.63;;
32393;SDS011;18853;45.426;9.206;2024-03-02T01:51:10;17.80;;;13.93;;
32393;SDS011;18853;45.426;9.206;2024-03-02T01:53:36;18.88;;;14.70;;
32393;SDS011;18853;45.426;9.206;2024-03-02T01:56:02;18.02;;;14.13;;
32393;SDS011;18853;45.426;9.206;2024-03-02T01:58:28;19.83;;;15.48;;
32393;SDS011;18853;45.426;9.206;2024-03-02T02:00:53;20.55;;;14.93;;
32393;SDS011;18853;45.426;9.206;2024-03-02T02:03:19;20.88;;;14.82;;
32393;SDS011;18853;45.426;9.206;2024-03-02T02:05:44;19.35;;;15.10;;
32393;SDS011;18853;45.426;9.206;2024-03-02T02:08:12;19.52;;;15.27;;
32393;SDS011;18853;45.426;9.206;2024-03-02T02:10:37;22.95;;;15.80;;
32393;SDS011;18853;45.426;9.206;2024-03-02T02:13:03;21.95;;;15.90;;
32393;SDS011;18853;45.426;9.206;2024-03-02T02:15:29;19.30;;;14.98;;
32393;SDS011;18853;45.426;9.206;2024-03-02T02:17:56;19.15;;;14.70;;
32393;SDS011;18853;45.426;9.206;2024-03-02T02:20:22;20.63;;;15.57;;
32393;SDS011;18853;45.426;9.206;2024-03-02T02:22:58;19.23;;;15.30;;
32393;SDS011;18853;45.426;9.206;2024-03-02T02:25:29;18.75;;;14.00;;
32393;SDS011;18853;45.426;9.206;2024-03-02T02:27:55;20.77;;;14.50;;
32393;SDS011;18853;45.426;9.206;2024-03-02T02:30:24;17.35;;;14.30;;
32393;SDS011;18853;45.426;9.206;2024-03-02T02:32:52;19.35;;;13.02;;
32393;SDS011;18853;45.426;9.206;2024-03-02T02:35:18;18.20;;;12.55;;
32393;SDS011;18853;45.426;9.206;2024-03-02T02:37:44;19.50;;;12.73;;
32393;SDS011;18853;45.426;9.206;2024-03-02T02:40:11;16.45;;;12.35;;
32393;SDS011;18853;45.426;9.206;2024-03-02T02:42:38;16.90;;;12.98;;
32393;SDS011;18853;45.426;9.206;2024-03-02T02:45:04;16.00;;;12.40;;
32393;SDS011;18853;45.426;9.206;2024-03-02T02:47:33;18.88;;;13.38;;
32393;SDS011;18853;45.426;9.206;2024-03-02T02:50:02;16.88;;;12.88;;
32393;SDS011;18853;45.426;9.206;2024-03-02T02:52:35;18.92;;;13.85;;
32393;SDS011;18853;45.426;9.206;2024-03-02T02:55:04;16.55;;;13.43;;
32393;SDS011;18853;45.426;9.206;2024-03-02T02:57:34;17.02;;;12.85;;
32393;SDS011;18853;45.426;9.206;2024-03-02T03:00:02;16.85;;;13.60;;
32393;SDS011;18853;45.426;9.206;2024-03-02T03:02:30;14.93;;;12.57;;
32393;SDS011;18853;45.426;9.206;2024-03-02T03:04:56;18.15;;;13.85;;
32393;SDS011;18853;45.426;9.206;2024-03-02T03:07:22;18.45;;;13.38;;
32393;SDS011;18853;45.426;9.206;2024-03-02T03:09:48;16.48;;;12.75;;
32393;SDS011;18853;45.426;9.206;2024-03-02T03:12:13;16.02;;;12.65;;
32393;SDS011;18853;45.426;9.206;2024-03-02T03:14:40;14.98;;;11.43;;
32393;SDS011;18853;45.426;9.206;2024-03-02T03:17:06;17.13;;;12.18;;
32393;SDS011;18853;45.426;9.206;2024-03-02T03:19:33;13.88;;;11.65;;
32393;SDS011;18853;45.426;9.206;2024-03-02T03:21:58;15.60;;;10.63;;
32393;SDS011;18853;45.426;9.206;2024-03-02T03:24:24;14.25;;;11.57;;
32393;SDS011;18853;45.426;9.206;2024-03-02T03:26:49;15.75;;;11.23;;
32393;SDS011;18853;45.426;9.206;2024-03-02T03:29:15;15.52;;;10.70;;
32393;SDS011;18853;45.426;9.206;2024-03-02T03:31:40;16.50;;;11.90;;
32393;SDS011;18853;45.426;9.206;2024-03-02T03:34:06;15.65;;;12.20;;
32393;SDS011;18853;45.426;9.206;2024-03-02T03:36:32;14.93;;;11.23;;
32393;SDS011;18853;45.426;9.206;2024-03-02T03:38:57;17.38;;;11.52;;
32393;SDS011;18853;45.426;9.206;2024-03-02T03:41:23;19.30;;;12.63;;
32393;SDS011;18853;45.426;9.206;2024-03-02T03:43:49;14.70;;;11.82;;
32393;SDS011;18853;45.426;9.206;2024-03-02T03:46:15;15.27;;;11.68;;
32393;SDS011;18853;45.426;9.206;2024-03-02T03:48:40;14.73;;;11.60;;
32393;SDS011;18853;45.426;9.206;2024-03-02T03:51:07;15.93;;;11.88;;
32393;SDS011;18853;45.426;9.206;2024-03-02T03:53:32;16.65;;;12.43;;
32393;SDS011;18853;45.426;9.206;2024-03-02T03:55:58;17.90;;;11.90;;
32393;SDS011;18853;45.426;9.206;2024-03-02T03:58:23;14.32;;;11.73;;
32393;SDS011;18853;45.426;9.206;2024-03-02T04:00:49;18.30;;;12.35;;
32393;SDS011;18853;45.426;9.206;2024-03-02T04:03:14;13.43;;;11.30;;
32393;SDS011;18853;45.426;9.206;2024-03-02T04:05:40;15.30;;;11.32;;
32393;SDS011;18853;45.426;9.206;2024-03-02T04:08:06;18.50;;;12.43;;
32393;SDS011;18853;45.426;9.206;2024-03-02T04:10:31;15.80;;;12.15;;
32393;SDS011;18853;45.426;9.206;2024-03-02T04:12:57;16.27;;;11.60;;
32393;SDS011;18853;45.426;9.206;2024-03-02T04:15:22;22.05;;;12.82;;
32393;SDS011;18853;45.426;9.206;2024-03-02T04:17:48;13.73;;;11.23;;
32393;SDS011;18853;45.426;9.206;2024-03-02T04:20:14;15.38;;;11.98;;
32393;SDS011;18853;45.426;9.206;2024-03-02T04:22:39;15.68;;;11.85;;
32393;SDS011;18853;45.426;9.206;2024-03-02T04:25:05;19.35;;;12.60;;
32393;SDS011;18853;45.426;9.206;2024-03-02T04:27:32;17.38;;;12.13;;
32393;SDS011;18853;45.426;9.206;2024-03-02T04:29:58;15.60;;;11.57;;
32393;SDS011;18853;45.426;9.206;2024-03-02T04:32:25;18.23;;;11.95;;
32393;SDS011;18853;45.426;9.206;2024-03-02T04:34:51;15.77;;;11.88;;
32393;SDS011;18853;45.426;9.206;2024-03-02T04:37:16;17.52;;;11.93;;
32393;SDS011;18853;45.426;9.206;2024-03-02T04:39:42;16.33;;;12.55;;
32393;SDS011;18853;45.426;9.206;2024-03-02T04:42:08;14.48;;;11.75;;
32393;SDS011;18853;45.426;9.206;2024-03-02T04:44:33;14.75;;;12.05;;
32393;SDS011;18853;45.426;9.206;2024-03-02T04:46:59;15.00;;;11.80;;
32393;SDS011;18853;45.426;9.206;2024-03-02T04:49:24;12.80;;;10.77;;
32393;SDS011;18853;45.426;9.206;2024-03-02T04:51:50;12.43;;;10.00;;
32393;SDS011;18853;45.426;9.206;2024-03-02T04:54:16;12.52;;;10.20;;
32393;SDS011;18853;45.426;9.206;2024-03-02T04:56:41;15.88;;;11.45;;
32393;SDS011;18853;45.426;9.206;2024-03-02T04:59:14;12.38;;;10.27;;
32393;SDS011;18853;45.426;9.206;2024-03-02T05:01:40;14.18;;;10.45;;
32393;SDS011;18853;45.426;9.206;2024-03-02T05:04:06;12.63;;;10.50;;
32393;SDS011;18853;45.426;9.206;2024-03-02T05:06:31;13.05;;;10.60;;
32393;SDS011;18853;45.426;9.206;2024-03-02T05:08:57;13.05;;;10.57;;
32393;SDS011;18853;45.426;9.206;2024-03-02T05:11:22;12.43;;;10.15;;
32393;SDS011;18853;45.426;9.206;2024-03-02T05:14:11;13.05;;;10.63;;
32393;SDS011;18853;45.426;9.206;2024-03-02T05:16:36;13.52;;;10.25;;
32393;SDS011;18853;45.426;9.206;2024-03-02T05:19:03;14.25;;;10.98;;
32393;SDS011;18853;45.426;9.206;2024-03-02T05:21:31;15.32;;;10.63;;
32393;SDS011;18853;45.426;9.206;2024-03-02T05:23:57;14.60;;;11.38;;
32393;SDS011;18853;45.426;9.206;2024-03-02T05:26:23;15.30;;;11.27;;
32393;SDS011;18853;45.426;9.206;2024-03-02T05:28:48;15.20;;;11.27;;
32393;SDS011;18853;45.426;9.206;2024-03-02T05:31:17;15.18;;;10.95;;
32393;SDS011;18853;45.426;9.206;2024-03-02T05:33:43;13.95;;;10.38;;
32393;SDS011;18853;45.426;9.206;2024-03-02T05:36:08;12.85;;;9.65;;
32393;SDS011;18853;45.426;9.206;2024-03-02T05:38:34;12.48;;;10.05;;
32393;SDS011;18853;45.426;9.206;2024-03-02T05:41:00;12.85;;;9.85;;
32393;SDS011;18853;45.426;9.206;2024-03-02T05:43:26;12.75;;;10.00;;
32393;SDS011;18853;45.426;9.206;2024-03-02T05:45:51;12.80;;;9.68;;
32393;SDS011;18853;45.426;9.206;2024-03-02T05:48:17;12.48;;;9.63;;
32393;SDS011;18853;45.426;9.206;2024-03-02T05:50:42;11.85;;;9.13;;
32393;SDS011;18853;45.426;9.206;2024-03-02T05:53:08;11.05;;;8.13;;
32393;SDS011;18853;45.426;9.206;2024-03-02T05:55:34;10.70;;;8.05;;
32393;SDS011;18853;45.426;9.206;2024-03-02T05:57:59;10.32;;;7.90;;
32393;SDS011;18853;45.426;9.206;2024-03-02T06:00:28;10.45;;;7.72;;
32393;SDS011;18853;45.426;9.206;2024-03-02T06:02:54;9.07;;;6.85;;
32393;SDS011;18853;45.426;9.206;2024-03-02T06:05:20;9.63;;;7.15;;
32393;SDS011;18853;45.426;9.206;2024-03-02T06:07:45;8.68;;;7.07;;
32393;SDS011;18853;45.426;9.206;2024-03-02T06:10:11;9.07;;;6.90;;
32393;SDS011;18853;45.426;9.206;2024-03-02T06:12:36;10.35;;;7.25;;
32393;SDS011;18853;45.426;9.206;2024-03-02T06:15:02;9.73;;;7.47;;
32393;SDS011;18853;45.426;9.206;2024-03-02T06:17:28;10.15;;;7.88;;
32393;SDS011;18853;45.426;9.206;2024-03-02T06:19:54;10.65;;;7.93;;
32393;SDS011;18853;45.426;9.206;2024-03-02T06:22:20;11.43;;;8.48;;
32393;SDS011;18853;45.426;9.206;2024-03-02T06:24:47;11.70;;;8.60;;
32393;SDS011;18853;45.426;9.206;2024-03-02T06:27:14;10.07;;;8.10;;
32393;SDS011;18853;45.426;9.206;2024-03-02T06:29:39;10.88;;;8.50;;
32393;SDS011;18853;45.426;9.206;2024-03-02T06:32:05;10.82;;;8.25;;
32393;SDS011;18853;45.426;9.206;2024-03-02T06:34:30;10.05;;;7.80;;
32393;SDS011;18853;45.426;9.206;2024-03-02T06:36:56;10.50;;;8.00;;
32393;SDS011;18853;45.426;9.206;2024-03-02T06:39:22;9.80;;;7.28;;
32393;SDS011;18853;45.426;9.206;2024-03-02T06:41:47;7.95;;;6.20;;
32393;SDS011;18853;45.426;9.206;2024-03-02T06:44:13;8.80;;;6.10;;
32393;SDS011;18853;45.426;9.206;2024-03-02T06:46:38;8.07;;;5.75;;
32393;SDS011;18853;45.426;9.206;2024-03-02T06:49:04;8.87;;;6.17;;
32393;SDS011;18853;45.426;9.206;2024-03-02T06:51:29;13.73;;;6.25;;
32393;SDS011;18853;45.426;9.206;2024-03-02T06:53:55;9.65;;;6.63;;
32393;SDS011;18853;45.426;9.206;2024-03-02T06:56:24;9.25;;;7.28;;
32393;SDS011;18853;45.426;9.206;2024-03-02T06:58:49;9.15;;;7.00;;
32393;SDS011;18853;45.426;9.206;2024-03-02T07:01:15;7.53;;;5.65;;
32393;SDS011;18853;45.426;9.206;2024-03-02T07:03:40;6.93;;;5.55;;
32393;SDS011;18853;45.426;9.206;2024-03-02T07:06:06;8.90;;;5.80;;
32393;SDS011;18853;45.426;9.206;2024-03-02T07:08:32;6.63;;;5.47;;
32393;SDS011;18853;45.426;9.206;2024-03-02T07:10:57;8.30;;;6.45;;
32393;SDS011;18853;45.426;9.206;2024-03-02T07:13:23;9.25;;;6.05;;
32393;SDS011;18853;45.426;9.206;2024-03-02T07:15:48;9.85;;;6.82;;
32393;SDS011;18853;45.426;9.206;2024-03-02T07:18:29;8.45;;;6.53;;
32393;SDS011;18853;45.426;9.206;2024-03-02T07:20:55;9.02;;;7.10;;
32393;SDS011;18853;45.426;9.206;2024-03-02T07:23:24;8.57;;;6.70;;
32393;SDS011;18853;45.426;9.206;2024-03-02T07:25:52;8.70;;;6.88;;
32393;SDS011;18853;45.426;9.206;2024-03-02T07:28:20;9.38;;;6.35;;
32393;SDS011;18853;45.426;9.206;2024-03-02T07:30:45;9.52;;;6.75;;
32393;SDS011;18853;45.426;9.206;2024-03-02T07:33:11;8.75;;;6.28;;
32393;SDS011;18853;45.426;9.206;2024-03-02T07:35:36;7.80;;;6.28;;
32393;SDS011;18853;45.426;9.206;2024-03-02T07:38:02;10.68;;;6.20;;
32393;SDS011;18853;45.426;9.206;2024-03-02T07:40:28;9.15;;;6.63;;
32393;SDS011;18853;45.426;9.206;2024-03-02T07:42:56;7.82;;;5.50;;
32393;SDS011;18853;45.426;9.206;2024-03-02T07:45:21;7.43;;;5.35;;
32393;SDS011;18853;45.426;9.206;2024-03-02T07:47:47;7.38;;;5.13;;
32393;SDS011;18853;45.426;9.206;2024-03-02T07:50:13;8.18;;;6.10;;
32393;SDS011;18853;45.426;9.206;2024-03-02T07:52:38;11.07;;;8.35;;
32393;SDS011;18853;45.426;9.206;2024-03-02T07:55:04;11.40;;;8.43;;
32393;SDS011;18853;45.426;9.206;2024-03-02T07:57:30;10.85;;;8.20;;
32393;SDS011;18853;45.426;9.206;2024-03-02T07:59:56;10.52;;;8.05;;
32393;SDS011;18853;45.426;9.206;2024-03-02T08:02:21;12.95;;;9.20;;
32393;SDS011;18853;45.426;9.206;2024-03-02T08:04:47;10.05;;;7.85;;
32393;SDS011;18853;45.426;9.206;2024-03-02T08:07:13;8.10;;;6.18;;
32393;SDS011;18853;45.426;9.206;2024-03-02T08:09:38;8.35;;;6.13;;
32393;SDS011;18853;45.426;9.206;2024-03-02T08:12:04;9.15;;;6.78;;
32393;SDS011;18853;45.426;9.206;2024-03-02T08:14:30;7.10;;;5.60;;
32393;SDS011;18853;45.426;9.206;2024-03-02T08:16:55;6.88;;;5.30;;
32393;SDS011;18853;45.426;9.206;2024-03-02T08:19:21;7.97;;;5.80;;
32393;SDS011;18853;45.426;9.206;2024-03-02T08:21:48;7.50;;;5.63;;
32393;SDS011;18853;45.426;9.206;2024-03-02T08:24:14;6.78;;;5.75;;
32393;SDS011;18853;45.426;9.206;2024-03-02T08:26:39;7.57;;;5.32;;
32393;SDS011;18853;45.426;9.206;2024-03-02T08:29:05;5.80;;;4.90;;
32393;SDS011;18853;45.426;9.206;2024-03-02T08:31:30;6.40;;;4.90;;
32393;SDS011;18853;45.426;9.206;2024-03-02T08:33:56;6.90;;;5.40;;
32393;SDS011;18853;45.426;9.206;2024-03-02T08:36:22;7.43;;;5.65;;
32393;SDS011;18853;45.426;9.206;2024-03-02T08:38:51;7.85;;;5.68;;
32393;SDS011;18853;45.426;9.206;2024-03-02T08:41:17;7.72;;;5.40;;
32393;SDS011;18853;45.426;9.206;2024-03-02T08:43:43;7.25;;;4.70;;
32393;SDS011;18853;45.426;9.206;2024-03-02T08:46:09;6.22;;;5.15;;
32393;SDS011;18853;45.426;9.206;2024-03-02T08:48:35;7.25;;;5.10;;
32393;SDS011;18853;45.426;9.206;2024-03-02T08:51:01;6.25;;;5.15;;
32393;SDS011;18853;45.426;9.206;2024-03-02T08:53:29;7.40;;;5.53;;
32393;SDS011;18853;45.426;9.206;2024-03-02T08:55:55;6.88;;;5.47;;
32393;SDS011;18853;45.426;9.206;2024-03-02T08:58:20;8.57;;;5.82;;
32393;SDS011;18853;45.426;9.206;2024-03-02T09:00:46;7.50;;;5.35;;
32393;SDS011;18853;45.426;9.206;2024-03-02T09:03:12;7.80;;;5.90;;
32393;SDS011;18853;45.426;9.206;2024-03-02T09:05:38;6.13;;;4.75;;
32393;SDS011;18853;45.426;9.206;2024-03-02T09:08:04;6.28;;;5.03;;
32393;SDS011;18853;45.426;9.206;2024-03-02T09:10:29;7.60;;;5.28;;
32393;SDS011;18853;45.426;9.206;2024-03-02T09:12:55;8.15;;;5.80;;
32393;SDS011;18853;45.426;9.206;2024-03-02T09:15:21;7.85;;;5.90;;
32393;SDS011;18853;45.426;9.206;2024-03-02T09:17:46;8.18;;;5.63;;
32393;SDS011;18853;45.426;9.206;2024-03-02T09:20:12;6.13;;;4.63;;
32393;SDS011;18853;45.426;9.206;2024-03-02T09:22:39;7.47;;;4.95;;
32393;SDS011;18853;45.426;9.206;2024-03-02T09:25:04;6.07;;;4.60;;
32393;SDS011;18853;45.426;9.206;2024-03-02T09:27:35;5.97;;;4.55;;
32393;SDS011;18853;45.426;9.206;2024-03-02T09:30:02;6.93;;;4.80;;
32393;SDS011;18853;45.426;9.206;2024-03-02T09:32:27;6.53;;;4.45;;
32393;SDS011;18853;45.426;9.206;2024-03-02T09:34:53;6.93;;;4.93;;
32393;SDS011;18853;45.426;9.206;2024-03-02T09:37:20;7.65;;;4.85;;
32393;SDS011;18853;45.426;9.206;2024-03-02T09:39:46;9.10;;;5.72;;
32393;SDS011;18853;45.426;9.206;2024-03-02T09:42:12;6.72;;;4.60;;
32393;SDS011;18853;45.426;9.206;2024-03-02T09:44:38;8.10;;;4.15;;
32393;SDS011;18853;45.426;9.206;2024-03-02T09:47:04;5.50;;;3.65;;
32393;SDS011;18853;45.426;9.206;2024-03-02T09:49:31;5.78;;;3.97;;
32393;SDS011;18853;45.426;9.206;2024-03-02T09:51:57;4.85;;;3.28;;
32393;SDS011;18853;45.426;9.206;2024-03-02T09:54:22;6.35;;;2.92;;
32393;SDS011;18853;45.426;9.206;2024-03-02T09:56:49;3.60;;;2.60;;
32393;SDS011;18853;45.426;9.206;2024-03-02T09:59:16;4.78;;;3.22;;
32393;SDS011;18853;45.426;9.206;2024-03-02T10:01:59;4.78;;;3.25;;
32393;SDS011;18853;45.426;9.206;2024-03-02T10:04:26;5.32;;;3.17;;
32393;SDS011;18853;45.426;9.206;2024-03-02T10:07:09;5.90;;;3.67;;
32393;SDS011;18853;45.426;9.206;2024-03-02T10:09:42;2.65;;;1.70;;
32393;SDS011;18853;45.426;9.206;2024-03-02T10:12:10;4.13;;;2.42;;
32393;SDS011;18853;45.426;9.206;2024-03-02T10:14:37;3.05;;;1.95;;
32393;SDS011;18853;45.426;9.206;2024-03-02T10:17:07;5.40;;;3.15;;
32393;SDS011;18853;45.426;9.206;2024-03-02T10:19:34;6.40;;;4.15;;
32393;SDS011;18853;45.426;9.206;2024-03-02T10:22:03;2.00;;;1.30;;
32393;SDS011;18853;45.426;9.206;2024-03-02T10:27:06;2.42;;;1.48;;
32393;SDS011;18853;45.426;9.206;2024-03-02T10:29:35;2.45;;;1.45;;
32393;SDS011;18853;45.426;9.206;2024-03-02T10:32:05;3.85;;;2.53;;
32393;SDS011;18853;45.426;9.206;2024-03-02T10:34:33;3.00;;;2.03;;
32393;SDS011;18853;45.426;9.206;2024-03-02T10:37:00;3.63;;;2.63;;
32393;SDS011;18853;45.426;9.206;2024-03-02T10:39:26;3.75;;;2.47;;
32393;SDS011;18853;45.426;9.206;2024-03-02T10:41:52;5.50;;;3.70;;
32393;SDS011;18853;45.426;9.206;2024-03-02T10:44:19;4.45;;;3.17;;
32393;SDS011;18853;45.426;9.206;2024-03-02T10:46:47;6.07;;;4.50;;
32393;SDS011;18853;45.426;9.206;2024-03-02T10:49:14;6.35;;;4.28;;
32393;SDS011;18853;45.426;9.206;2024-03-02T10:51:40;7.22;;;4.97;;
32393;SDS011;18853;45.426;9.206;2024-03-02T10:54:05;5.43;;;4.50;;
32393;SDS011;18853;45.426;9.206;2024-03-02T10:56:39;5.70;;;4.30;;
32393;SDS011;18853;45.426;9.206;2024-03-02T11:01:51;5.25;;;3.80;;
32393;SDS011;18853;45.426;9.206;2024-03-02T11:04:21;4.28;;;3.25;;
32393;SDS011;18853;45.426;9.206;2024-03-02T11:06:49;4.18;;;3.45;;
32393;SDS011;18853;45.426;9.206;2024-03-02T11:09:16;5.13;;;3.75;;
32393;SDS011;18853;45.426;9.206;2024-03-02T11:11:45;5.38;;;3.85;;
32393;SDS011;18853;45.426;9.206;2024-03-02T11:14:16;5.85;;;4.20;;
32393;SDS011;18853;45.426;9.206;2024-03-02T11:16:46;5.68;;;4.15;;
32393;SDS011;18853;45.426;9.206;2024-03-02T11:19:13;5.95;;;4.88;;
32393;SDS011;18853;45.426;9.206;2024-03-02T11:21:40;8.60;;;5.03;;
32393;SDS011;18853;45.426;9.206;2024-03-02T11:26:48;7.80;;;5.75;;
32393;SDS011;18853;45.426;9.206;2024-03-02T11:32:00;9.10;;;6.50;;
32393;SDS011;18853;45.426;9.206;2024-03-02T11:34:30;10.60;;;7.32;;
32393;SDS011;18853;45.426;9.206;2024-03-02T11:37:02;8.70;;;7.05;;
32393;SDS011;18853;45.426;9.206;2024-03-02T11:39:28;9.35;;;6.78;;
32393;SDS011;18853;45.426;9.206;2024-03-02T11:41:55;9.45;;;6.47;;
32393;SDS011;18853;45.426;9.206;2024-03-02T11:44:22;10.95;;;7.10;;
32393;SDS011;18853;45.426;9.206;2024-03-02T11:46:57;8.65;;;7.03;;
32393;SDS011;18853;45.426;9.206;2024-03-02T11:52:16;9.50;;;7.55;;
32393;SDS011;18853;45.426;9.206;2024-03-02T11:54:43;10.93;;;7.97;;
32393;SDS011;18853;45.426;9.206;2024-03-02T11:57:22;9.65;;;7.40;;
32393;SDS011;18853;45.426;9.206;2024-03-02T11:59:48;9.77;;;7.47;;
32393;SDS011;18853;45.426;9.206;2024-03-02T12:02:15;10.07;;;6.97;;
32393;SDS011;18853;45.426;9.206;2024-03-02T12:04:43;9.23;;;6.78;;
32393;SDS011;18853;45.426;9.206;2024-03-02T12:07:10;11.63;;;6.85;;
32393;SDS011;18853;45.426;9.206;2024-03-02T12:09:36;10.85;;;6.40;;
32393;SDS011;18853;45.426;9.206;2024-03-02T12:12:05;8.57;;;5.65;;
32393;SDS011;18853;45.426;9.206;2024-03-02T12:14:37;8.70;;;5.85;;
32393;SDS011;18853;45.426;9.206;2024-03-02T12:17:06;8.32;;;5.72;;
32393;SDS011;18853;45.426;9.206;2024-03-02T12:19:32;8.43;;;6.00;;
32393;SDS011;18853;45.426;9.206;2024-03-02T12:21:59;7.15;;;5.80;;
32393;SDS011;18853;45.426;9.206;2024-03-02T12:24:28;9.07;;;6.03;;
32393;SDS011;18853;45.426;9.206;2024-03-02T12:26:54;8.50;;;5.82;;
32393;SDS011;18853;45.426;9.206;2024-03-02T12:29:21;7.72;;;6.00;;
32393;SDS011;18853;45.426;9.206;2024-03-02T12:31:48;8.30;;;5.80;;
32393;SDS011;18853;45.426;9.206;2024-03-02T12:34:14;16.42;;;10.00;;
32393;SDS011;18853;45.426;9.206;2024-03-02T12:36:40;12.70;;;8.65;;
32393;SDS011;18853;45.426;9.206;2024-03-02T12:39:09;7.53;;;5.63;;
32393;SDS011;18853;45.426;9.206;2024-03-02T12:41:35;18.02;;;12.35;;
32393;SDS011;18853;45.426;9.206;2024-03-02T12:44:02;11.05;;;7.53;;
32393;SDS011;18853;45.426;9.206;2024-03-02T12:46:28;12.02;;;8.20;;
32393;SDS011;18853;45.426;9.206;2024-03-02T12:48:54;9.82;;;6.85;;
32393;SDS011;18853;45.426;9.206;2024-03-02T12:51:20;13.15;;;8.30;;
32393;SDS011;18853;45.426;9.206;2024-03-02T12:53:45;9.85;;;6.75;;
32393;SDS011;18853;45.426;9.206;2024-03-02T12:56:18;9.68;;;7.32;;
32393;SDS011;18853;45.426;9.206;2024-03-02T12:58:44;8.25;;;6.15;;
32393;SDS011;18853;45.426;9.206;2024-03-02T13:01:09;10.43;;;7.38;;
32393;SDS011;18853;45.426;9.206;2024-03-02T13:03:38;10.80;;;8.27;;
32393;SDS011;18853;45.426;9.206;2024-03-02T13:06:05;12.43;;;8.77;;
32393;SDS011;18853;45.426;9.206;2024-03-02T13:08:31;12.25;;;8.23;;
32393;SDS011;18853;45.426;9.206;2024-03-02T13:10:57;11.88;;;8.60;;
32393;SDS011;18853;45.426;9.206;2024-03-02T13:13:23;11.63;;;7.45;;
32393;SDS011;18853;45.426;9.206;2024-03-02T13:15:49;26.05;;;18.63;;
32393;SDS011;18853;45.426;9.206;2024-03-02T13:18:14;11.52;;;7.40;;
32393;SDS011;18853;45.426;9.206;2024-03-02T13:20:42;10.95;;;8.27;;
32393;SDS011;18853;45.426;9.206;2024-03-02T13:23:08;11.07;;;7.47;;
32393;SDS011;18853;45.426;9.206;2024-03-02T13:25:33;11.05;;;6.70;;
32393;SDS011;18853;45.426;9.206;2024-03-02T13:27:59;9.90;;;7.13;;
32393;SDS011;18853;45.426;9.206;2024-03-02T13:30:25;9.68;;;7.22;;
32393;SDS011;18853;45.426;9.206;2024-03-02T13:32:51;9.52;;;7.22;;
32393;SDS011;18853;45.426;9.206;2024-03-02T13:35:18;9.80;;;7.35;;
32393;SDS011;18853;45.426;9.206;2024-03-02T13:37:43;9.90;;;7.13;;
32393;SDS011;18853;45.426;9.206;2024-03-02T13:40:09;10.40;;;7.93;;
32393;SDS011;18853;45.426;9.206;2024-03-02T13:42:39;12.95;;;9.05;;
32393;SDS011;18853;45.426;9.206;2024-03-02T13:45:05;10.68;;;7.95;;
32393;SDS011;18853;45.426;9.206;2024-03-02T13:47:31;10.95;;;8.02;;
32393;SDS011;18853;45.426;9.206;2024-03-02T13:49:57;11.88;;;8.70;;
32393;SDS011;18853;45.426;9.206;2024-03-02T13:52:23;13.73;;;8.95;;
32393;SDS011;18853;45.426;9.206;2024-03-02T13:54:50;11.23;;;8.90;;
32393;SDS011;18853;45.426;9.206;2024-03-02T13:57:17;12.15;;;8.93;;
32393;SDS011;18853;45.426;9.206;2024-03-02T13:59:45;35.70;;;25.30;;
32393;SDS011;18853;45.426;9.206;2024-03-02T14:02:10;13.60;;;8.45;;
32393;SDS011;18853;45.426;9.206;2024-03-02T14:04:37;33.75;;;23.17;;
32393;SDS011;18853;45.426;9.206;2024-03-02T14:07:04;20.40;;;14.70;;
32393;SDS011;18853;45.426;9.206;2024-03-02T14:09:33;10.10;;;7.90;;
32393;SDS011;18853;45.426;9.206;2024-03-02T14:11:59;11.45;;;8.43;;
32393;SDS011;18853;45.426;9.206;2024-03-02T14:14:27;11.57;;;7.47;;
32393;SDS011;18853;45.426;9.206;2024-03-02T14:16:56;16.73;;;12.63;;
32393;SDS011;18853;45.426;9.206;2024-03-02T14:19:25;11.43;;;8.75;;
32393;SDS011;18853;45.426;9.206;2024-03-02T14:21:51;28.17;;;20.15;;
32393;SDS011;18853;45.426;9.206;2024-03-02T14:24:16;20.58;;;15.27;;
32393;SDS011;18853;45.426;9.206;2024-03-02T14:26:42;47.97;;;32.92;;
32393;SDS011;18853;45.426;9.206;2024-03-02T14:29:07;11.13;;;8.77;;
32393;SDS011;18853;45.426;9.206;2024-03-02T14:31:33;16.55;;;12.50;;
32393;SDS011;18853;45.426;9.206;2024-03-02T14:33:59;14.38;;;10.82;;
32393;SDS011;18853;45.426;9.206;2024-03-02T14:36:25;14.55;;;10.43;;
32393;SDS011;18853;45.426;9.206;2024-03-02T14:38:52;40.25;;;28.23;;
32393;SDS011;18853;45.426;9.206;2024-03-02T14:41:18;24.27;;;18.20;;
32393;SDS011;18853;45.426;9.206;2024-03-02T14:43:44;30.77;;;22.05;;
32393;SDS011;18853;45.426;9.206;2024-03-02T14:46:09;30.63;;;22.38;;
32393;SDS011;18853;45.426;9.206;2024-03-02T14:48:39;18.38;;;12.15;;
32393;SDS011;18853;45.426;9.206;2024-03-02T14:51:04;14.02;;;11.38;;